Time;durP1;ratioP1;P1;durP2;ratioP2;P2;SDS_P1;SDS_P2;PMS_P1;PMS_P2;Temp;Humidity;BMP_temperature;BMP_pressure;BME280_temperature;BME280_humidity;BME280_pressure;Samples;Min_cycle;Max_cycle;Signal;HPM_P1;HPM_P2
2021/10/09 01:07:15;;;;;;;5.50;4.60;;;4.50;99.90;;;;;;6166926;23;20399;-81
2021/10/09 01:10:02;;;;;;;6.63;5.20;;;4.40;99.90;;;;;;6181223;23;20459;-80
2021/10/09 01:12:49;;;;;;;6.73;4.77;;;4.40;99.90;;;;;;6200468;23;20367;-81
2021/10/09 01:15:35;;;;;;;6.68;5.30;;;4.30;99.90;;;;;;6221078;23;20371;-81
2021/10/09 01:18:22;;;;;;;7.10;4.93;;;4.20;99.90;;;;;;6199073;23;20919;-82
2021/10/09 01:21:10;;;;;;;5.50;4.40;;;4.20;99.90;;;;;;6186344;23;20875;-81
2021/10/09 01:24:01;;;;;;;5.25;4.75;;;4.30;99.90;;;;;;6201338;23;20374;-82
2021/10/09 01:26:46;;;;;;;4.53;4.13;;;4.20;99.90;;;;;;6180747;23;20375;-80
2021/10/09 01:29:33;;;;;;;5.15;4.05;;;4.10;99.90;;;;;;6205056;23;20401;-80
2021/10/09 01:32:21;;;;;;;4.63;4.07;;;4.20;99.90;;;;;;6181330;23;20416;-80
2021/10/09 01:35:07;;;;;;;6.03;5.03;;;4.10;99.90;;;;;;6226201;23;20367;-80
2021/10/09 02:55:09;;;;;;;5.47;4.82;;;4.30;99.90;;;;;;6185213;23;20749;-81
2021/10/09 04:12:36;;;;;;;6.32;4.35;;;3.60;99.90;;;;;;6204175;22;20395;-79
2021/10/09 04:15:21;;;;;;;4.53;4.13;;;3.60;99.90;;;;;;6202041;23;20435;-83
2021/10/09 04:18:06;;;;;;;5.57;4.70;;;3.60;99.90;;;;;;6195620;23;20363;-82
2021/10/09 04:20:51;;;;;;;6.20;4.28;;;3.60;99.90;;;;;;6219823;23;20371;-83
2021/10/09 04:23:39;;;;;;;4.38;3.97;;;3.60;99.90;;;;;;6176932;23;20396;-82
2021/10/09 04:26:54;;;;;;;7.03;4.07;;;3.50;99.90;;;;;;6145137;23;20415;-82
2021/10/09 04:30:11;;;;;;;5.17;4.17;;;3.50;99.90;;;;;;6180335;23;20387;-81
2021/10/09 04:32:57;;;;;;;4.25;3.58;;;3.40;99.90;;;;;;6176456;23;20367;-79
2021/10/09 04:35:42;;;;;;;5.68;4.15;;;3.40;99.90;;;;;;6146231;23;20785;-80
2021/10/09 04:38:26;;;;;;;5.88;4.18;;;3.40;99.90;;;;;;6177465;23;20436;-79
2021/10/09 04:41:11;;;;;;;4.45;3.70;;;3.30;99.90;;;;;;6156181;23;20385;-80
2021/10/09 04:43:56;;;;;;;4.60;4.13;;;3.30;99.90;;;;;;6166336;23;20385;-80
2021/10/09 04:46:41;;;;;;;4.67;4.10;;;3.30;99.90;;;;;;6200810;23;20364;-79
2021/10/09 04:49:28;;;;;;;7.38;4.75;;;3.30;99.90;;;;;;6167870;23;20371;-81
2021/10/09 04:52:16;;;;;;;3.58;3.28;;;3.30;99.90;;;;;;6208847;23;20421;-82
2021/10/09 04:55:01;;;;;;;4.63;4.22;;;3.30;99.90;;;;;;6192555;23;20726;-82
2021/10/09 04:57:45;;;;;;;5.22;4.22;;;3.20;99.90;;;;;;6175721;23;20388;-82
2021/10/09 05:00:30;;;;;;;6.35;5.20;;;3.30;99.90;;;;;;6166571;23;20369;-82
2021/10/09 05:03:15;;;;;;;4.00;3.70;;;3.20;99.90;;;;;;6184875;23;20736;-82
2021/10/09 05:06:00;;;;;;;7.25;4.80;;;3.10;99.90;;;;;;6196282;23;20385;-82
2021/10/09 05:08:46;;;;;;;8.88;4.63;;;3.10;99.90;;;;;;6161982;23;20428;-83
2021/10/09 05:11:32;;;;;;;7.25;4.88;;;3.00;99.90;;;;;;6183996;23;20456;-83
2021/10/09 05:14:16;;;;;;;6.30;4.38;;;3.00;99.90;;;;;;6221856;23;20393;-83
2021/10/09 05:17:01;;;;;;;4.47;3.88;;;3.00;99.90;;;;;;6209718;23;20865;-82
2021/10/09 05:19:46;;;;;;;5.20;4.43;;;3.00;99.90;;;;;;6174874;23;20750;-80
2021/10/09 05:22:31;;;;;;;8.55;5.25;;;3.00;99.90;;;;;;6204951;23;20756;-80
2021/10/09 05:25:15;;;;;;;5.60;4.43;;;2.90;99.90;;;;;;6148744;23;20432;-81
2021/10/09 05:28:06;;;;;;;7.78;4.70;;;3.00;99.90;;;;;;6141281;23;20607;-78
2021/10/09 05:30:56;;;;;;;4.97;4.38;;;2.80;99.90;;;;;;6175808;23;20385;-78
2021/10/09 05:33:43;;;;;;;4.95;4.45;;;2.90;99.90;;;;;;6152969;23;20930;-78
2021/10/09 05:36:27;;;;;;;7.73;4.70;;;2.90;99.90;;;;;;6165894;23;20393;-80
2021/10/09 05:39:12;;;;;;;7.83;4.50;;;2.80;99.90;;;;;;6197762;23;20389;-80
2021/10/09 05:41:57;;;;;;;4.47;4.07;;;2.80;99.90;;;;;;6198063;23;20390;-80
2021/10/09 05:44:42;;;;;;;5.83;4.43;;;2.80;99.90;;;;;;6185269;23;20744;-79
2021/10/09 05:47:30;;;;;;;4.25;3.80;;;2.90;99.90;;;;;;6183210;23;20437;-78
2021/10/09 05:50:15;;;;;;;4.13;3.70;;;2.90;99.90;;;;;;6202611;23;20445;-79
2021/10/09 05:53:12;;;;;;;5.22;4.13;;;2.90;99.90;;;;;;6142697;23;20965;-79
2021/10/09 05:56:00;;;;;;;4.95;4.45;;;2.90;99.90;;;;;;6194329;23;20367;-78
2021/10/09 05:58:57;;;;;;;5.95;4.60;;;2.90;99.90;;;;;;6210154;23;20765;-79
2021/10/09 06:02:14;;;;;;;4.75;3.85;;;2.90;99.90;;;;;;6149476;23;20366;-78
2021/10/09 06:25:23;;;;;;;8.70;4.67;;;3.00;99.90;;;;;;6227514;22;20357;-82
2021/10/09 08:05:51;;;;;;;5.63;4.93;;;6.50;99.90;;;;;;6189282;23;20372;-79
2021/10/09 08:08:36;;;;;;;7.32;5.10;;;6.70;99.90;;;;;;6167650;23;20363;-81
2021/10/09 08:11:20;;;;;;;6.20;4.60;;;6.70;99.90;;;;;;6219811;23;20378;-82
2021/10/09 08:14:22;;;;;;;7.60;4.63;;;6.70;99.90;;;;;;6231955;23;20393;-83
2021/10/09 08:41:14;;;;;;;9.50;4.57;;;7.90;99.90;;;;;;6161497;23;20418;-78
2021/10/09 08:44:02;;;;;;;5.67;3.93;;;8.00;99.90;;;;;;6142364;23;20401;-80
2021/10/09 08:46:53;;;;;;;5.95;4.07;;;8.10;99.90;;;;;;6147643;22;20769;-79
2021/10/09 08:49:46;;;;;;;3.85;3.53;;;8.30;99.90;;;;;;6172576;22;20370;-79
2021/10/09 09:02:51;;;;;;;4.90;3.90;;;8.80;99.90;;;;;;6188261;22;20473;31
2021/10/09 09:06:02;;;;;;;4.47;3.15;;;8.90;99.90;;;;;;6024173;23;20480;-82
2021/10/09 09:40:10;;;;;;;4.40;3.13;;;10.30;99.90;;;;;;6142265;23;20388;-83
2021/10/09 09:42:55;;;;;;;4.93;3.10;;;10.30;99.90;;;;;;6170448;23;20434;-82
2021/10/09 09:45:47;;;;;;;3.97;2.90;;;10.50;99.90;;;;;;6163850;23;20374;-80
2021/10/09 09:48:32;;;;;;;8.53;3.40;;;10.60;99.90;;;;;;6159977;23;20366;-79
2021/10/09 09:51:18;;;;;;;4.90;3.35;;;10.60;99.90;;;;;;6190428;23;20764;-79
2021/10/09 09:54:03;;;;;;;3.88;3.40;;;10.90;99.90;;;;;;6153622;23;20447;-80
2021/10/09 09:56:48;;;;;;;6.40;3.40;;;11.00;99.90;;;;;;6129138;23;20754;-82
2021/10/09 09:59:33;;;;;;;3.85;2.80;;;11.10;99.90;;;;;;6171649;23;20367;-82
2021/10/09 10:02:17;;;;;;;5.25;3.28;;;11.20;99.90;;;;;;6144044;23;20370;-78
2021/10/09 10:05:02;;;;;;;3.30;3.00;;;11.30;99.90;;;;;;6138943;23;20405;-79
2021/10/09 10:07:46;;;;;;;3.47;3.00;;;11.30;99.90;;;;;;6139373;23;20362;-79
2021/10/09 10:10:31;;;;;;;3.72;3.08;;;11.50;99.90;;;;;;6141389;23;20476;-79
2021/10/09 10:13:15;;;;;;;3.65;2.78;;;11.60;99.90;;;;;;6168428;23;20993;-80
2021/10/09 10:16:07;;;;;;;2.80;2.57;;;11.80;99.90;;;;;;6129412;23;20362;-80
2021/10/09 10:18:52;;;;;;;3.35;2.78;;;11.90;99.90;;;;;;6163705;23;20448;-80
2021/10/09 10:21:36;;;;;;;2.63;2.42;;;12.00;99.90;;;;;;6143382;23;20398;-80
2021/10/09 10:24:43;;;;;;;4.43;2.67;;;12.20;99.90;;;;;;6211303;23;20374;-81
2021/10/09 10:27:42;;;;;;;2.80;2.60;;;12.40;99.90;;;;;;6176569;23;20371;-79
2021/10/09 10:31:16;;;;;;;2.33;2.20;;;12.60;99.90;;;;;;6209303;22;20386;-81
2021/10/09 10:34:55;;;;;;;3.25;2.47;;;12.90;99.90;;;;;;6148398;23;20390;-81
2021/10/09 10:37:44;;;;;;;2.40;2.20;;;13.20;99.90;;;;;;6224508;23;20467;-82
2021/10/09 10:40:45;;;;;;;2.42;2.20;;;13.40;99.90;;;;;;6197439;23;20386;-81
2021/10/09 10:44:32;;;;;;;2.00;1.90;;;13.70;99.90;;;;;;6136638;23;20383;-80
2021/10/09 10:53:58;;;;;;;2.13;2.03;;;14.40;99.90;;;;;;6209232;23;20382;-81
2021/10/09 11:00:14;;;;;;;2.57;2.20;;;14.90;99.90;;;;;;6213263;23;20371;-80
2021/10/09 11:02:58;;;;;;;2.50;2.20;;;15.20;99.90;;;;;;6155601;23;20431;-81
2021/10/09 11:05:43;;;;;;;3.53;1.90;;;15.40;99.60;;;;;;6158694;23;20379;-82
2021/10/09 11:08:27;;;;;;;2.33;2.13;;;15.70;98.70;;;;;;6144466;23;20435;-82
2021/10/09 11:11:12;;;;;;;3.05;2.20;;;16.00;98.60;;;;;;6182566;23;20387;-80
2021/10/09 11:13:56;;;;;;;2.40;2.20;;;16.10;96.30;;;;;;6178040;23;20367;-81
2021/10/09 11:16:41;;;;;;;2.75;1.90;;;16.30;97.10;;;;;;6172115;23;20378;-80
2021/10/09 11:19:48;;;;;;;2.13;1.92;;;16.50;95.10;;;;;;6157492;23;20367;-81
2021/10/09 11:22:39;;;;;;;2.13;1.98;;;16.80;94.40;;;;;;6164542;23;20408;-81
2021/10/09 11:26:04;;;;;;;3.95;2.17;;;17.20;94.50;;;;;;6193450;23;20387;-82
2021/10/09 11:29:00;;;;;;;3.33;2.00;;;17.30;91.20;;;;;;6232706;23;20378;-82
2021/10/09 11:32:11;;;;;;;1.90;1.80;;;17.30;91.80;;;;;;6134170;23;20476;-82
2021/10/09 11:35:04;;;;;;;2.03;1.92;;;17.40;90.20;;;;;;6201688;23;20466;-80
2021/10/09 11:41:27;;;;;;;2.35;2.15;;;17.80;89.50;;;;;;6137795;23;20485;-80
2021/10/09 11:44:26;;;;;;;1.80;1.70;;;17.90;87.40;;;;;;6202200;23;20385;-81
2021/10/09 11:54:29;;;;;;;2.43;2.23;;;18.60;85.10;;;;;;6158806;23;20449;-82
2021/10/09 11:57:41;;;;;;;1.98;1.80;;;18.60;78.10;;;;;;6193362;23;20353;-82
2021/10/09 12:00:31;;;;;;;3.15;2.08;;;18.50;80.70;;;;;;6180400;23;20376;-82
2021/10/09 12:03:44;;;;;;;2.10;1.90;;;18.50;79.60;;;;;;6188133;23;20456;-81
2021/10/09 12:07:01;;;;;;;2.30;2.10;;;18.40;79.60;;;;;;6206199;23;20376;-81
2021/10/09 12:09:58;;;;;;;1.95;1.80;;;18.20;75.70;;;;;;6197247;23;20369;-81
2021/10/09 12:12:48;;;;;;;1.83;1.70;;;17.80;77.60;;;;;;6156774;23;20452;-81
2021/10/09 12:16:25;;;;;;;3.30;1.90;;;17.90;77.50;;;;;;6131774;23;20469;-82
2021/10/09 12:20:31;;;;;;;2.17;1.98;;;17.90;79.20;;;;;;6171357;23;20364;-81
2021/10/09 12:24:28;;;;;;;1.80;1.70;;;17.40;79.30;;;;;;6102384;23;20412;-81
2021/10/09 12:27:48;;;;;;;2.40;2.10;;;17.00;80.40;;;;;;6167965;23;20439;-81
2021/10/09 12:30:46;;;;;;;2.00;1.80;;;16.60;82.40;;;;;;6163271;23;20436;-81
2021/10/09 12:33:49;;;;;;;2.35;2.10;;;16.50;83.00;;;;;;6139045;23;20392;-81
2021/10/09 12:49:28;;;;;;;1.92;1.73;;;15.90;85.10;;;;;;6102827;23;21023;-80
2021/10/09 12:52:28;;;;;;;2.25;1.95;;;15.80;83.60;;;;;;6113369;23;20374;-81
2021/10/09 12:55:30;;;;;;;2.50;1.83;;;15.70;84.20;;;;;;6119697;23;20364;-81
2021/10/09 12:58:43;;;;;;;1.83;1.73;;;15.50;83.10;;;;;;6110177;23;20376;-80
2021/10/09 13:01:37;;;;;;;2.30;1.70;;;15.20;83.80;;;;;;6098530;23;20370;-79
2021/10/09 13:04:27;;;;;;;3.65;2.35;;;15.20;84.10;;;;;;6104734;23;21131;-80
2021/10/09 13:07:42;;;;;;;2.67;2.10;;;15.10;86.10;;;;;;6105236;23;20507;-81
2021/10/09 13:10:34;;;;;;;2.28;2.00;;;15.00;85.30;;;;;;6095965;23;20936;-80
2021/10/09 13:13:19;;;;;;;1.95;1.83;;;14.90;85.20;;;;;;6063625;23;20510;-79
2021/10/09 13:16:56;;;;;;;3.17;2.00;;;14.80;86.60;;;;;;6106560;23;20383;-79
2021/10/09 13:20:32;;;;;;;2.30;2.10;;;14.80;85.30;;;;;;6085871;23;20363;-78
2021/10/09 13:27:53;;;;;;;2.00;1.77;;;14.60;85.70;;;;;;5928008;23;20525;-79
2021/10/09 13:35:41;;;;;;;1.70;1.60;;;14.40;87.30;;;;;;6110069;23;20721;-78
2021/10/09 13:39:16;;;;;;;2.22;2.03;;;14.30;86.60;;;;;;6044945;23;20381;-79
2021/10/09 13:42:17;;;;;;;3.40;2.33;;;14.30;88.00;;;;;;6082870;23;20414;-80
2021/10/09 13:45:30;;;;;;;2.17;1.98;;;14.20;87.50;;;;;;6045669;23;20405;-79
2021/10/09 13:48:43;;;;;;;1.83;1.70;;;14.10;88.20;;;;;;6173028;23;20375;-83
2021/10/09 13:51:28;;;;;;;2.50;2.30;;;14.10;89.10;;;;;;6138952;23;20530;-83
2021/10/09 13:54:12;;;;;;;2.55;2.10;;;14.10;89.50;;;;;;6122707;23;20424;-83
2021/10/09 13:56:56;;;;;;;2.65;1.60;;;14.20;90.00;;;;;;6127765;23;20378;-90
2021/10/09 13:59:41;;;;;;;1.90;1.80;;;14.10;90.60;;;;;;6170625;23;20390;-88
2021/10/09 14:02:30;;;;;;;2.58;2.05;;;14.00;90.60;;;;;;6147555;23;20398;-83
2021/10/09 14:05:14;;;;;;;2.20;2.00;;;14.00;90.60;;;;;;6161533;23;20489;-83
2021/10/09 14:08:01;;;;;;;1.67;1.58;;;13.90;90.50;;;;;;6134760;23;20446;-82
2021/10/09 14:10:45;;;;;;;2.38;2.17;;;14.00;91.50;;;;;;6169725;23;20380;-81
2021/10/09 14:13:30;;;;;;;2.13;2.03;;;13.90;90.90;;;;;;6125112;23;20420;-83
2021/10/09 14:16:14;;;;;;;2.92;2.30;;;13.90;90.50;;;;;;6103346;23;20420;-83
2021/10/09 14:18:58;;;;;;;2.50;2.30;;;13.80;90.60;;;;;;6125716;23;20419;-84
2021/10/09 14:21:43;;;;;;;2.40;2.20;;;13.80;90.60;;;;;;6125392;23;20372;-86
2021/10/09 14:24:28;;;;;;;2.80;2.23;;;13.70;91.10;;;;;;6132883;23;20401;-83
2021/10/09 14:27:12;;;;;;;5.30;2.65;;;13.70;91.40;;;;;;6135170;23;20428;-83
2021/10/09 14:30:00;;;;;;;2.42;2.22;;;13.70;91.40;;;;;;6140184;23;20932;-84
2021/10/09 14:32:44;;;;;;;3.27;2.43;;;13.50;91.30;;;;;;6154134;23;20374;-83
2021/10/09 14:35:29;;;;;;;2.73;2.30;;;13.50;91.70;;;;;;6154763;23;21061;-84
2021/10/09 14:38:15;;;;;;;3.55;2.58;;;13.50;91.70;;;;;;6105057;23;20369;-81
2021/10/09 14:41:00;;;;;;;2.57;2.37;;;13.40;91.40;;;;;;6135495;23;20399;-83
2021/10/09 14:43:45;;;;;;;2.50;2.20;;;13.30;91.60;;;;;;6103715;23;20411;-83
2021/10/09 14:49:45;;;;;;;2.92;2.28;;;13.20;91.60;;;;;;6173902;23;20418;-83
2021/10/09 15:19:29;;;;;;;2.15;2.05;;;13.00;93.10;;;;;;6200168;23;20375;-87
2021/10/09 15:22:16;;;;;;;2.90;2.40;;;12.90;93.10;;;;;;6206887;23;20430;-84
2021/10/09 15:25:02;;;;;;;2.97;2.55;;;12.90;93.10;;;;;;6180693;23;20354;-83
2021/10/09 15:27:46;;;;;;;3.40;2.20;;;12.80;93.30;;;;;;6157501;23;20387;-88
2021/10/09 15:30:31;;;;;;;2.45;2.25;;;12.80;93.50;;;;;;6199814;23;20447;-83
2021/10/09 15:33:15;;;;;;;2.85;2.58;;;12.70;94.00;;;;;;6219475;23;20428;-84
2021/10/09 15:35:59;;;;;;;4.68;2.60;;;12.70;94.00;;;;;;6182567;23;20387;-83
2021/10/09 15:38:44;;;;;;;4.83;2.63;;;12.70;94.70;;;;;;6228174;23;20386;-83
2021/10/09 15:41:29;;;;;;;2.10;2.00;;;12.60;94.20;;;;;;6178002;23;20431;-83
2021/10/09 15:44:13;;;;;;;2.83;2.07;;;12.60;94.70;;;;;;6171900;23;20370;-83
2021/10/09 15:46:58;;;;;;;2.40;2.20;;;12.60;95.00;;;;;;6180835;23;20367;-83
2021/10/09 15:49:42;;;;;;;3.88;2.42;;;12.70;95.60;;;;;;6205996;23;20371;-83
2021/10/09 15:52:26;;;;;;;2.10;1.90;;;12.80;95.40;;;;;;6185802;23;20378;-89
2021/10/09 15:55:11;;;;;;;3.03;2.15;;;12.70;95.30;;;;;;6166434;23;20355;-84
2021/10/09 15:57:57;;;;;;;2.20;2.10;;;12.80;95.60;;;;;;6187614;23;20351;-88
2021/10/09 16:00:42;;;;;;;4.00;2.00;;;12.90;95.70;;;;;;6188437;23;20342;-85
2021/10/09 16:03:26;;;;;;;1.95;1.80;;;12.70;95.70;;;;;;6187589;23;20370;-84
2021/10/09 16:06:10;;;;;;;2.10;1.80;;;12.60;95.70;;;;;;6180943;23;20367;-88
2021/10/09 16:08:54;;;;;;;2.53;2.08;;;12.50;96.20;;;;;;6222842;23;20367;-86
2021/10/09 16:11:39;;;;;;;3.60;2.28;;;12.50;96.20;;;;;;6184672;23;20602;-87
2021/10/09 16:14:23;;;;;;;2.15;1.95;;;12.40;96.50;;;;;;6205812;23;20362;-88
2021/10/09 16:17:27;;;;;;;1.90;1.67;;;12.30;96.70;;;;;;6205343;23;20418;-89
2021/10/09 16:20:11;;;;;;;1.93;1.83;;;12.20;97.00;;;;;;6224822;23;20414;-83
2021/10/09 16:22:55;;;;;;;2.13;1.85;;;12.20;97.50;;;;;;6250603;22;20370;-87
2021/10/09 16:25:40;;;;;;;1.67;1.58;;;12.10;98.00;;;;;;6186302;23;20350;-86
2021/10/09 16:28:25;;;;;;;2.20;2.00;;;12.10;98.90;;;;;;6208402;23;20439;-90
2021/10/09 16:31:10;;;;;;;2.42;1.90;;;11.90;99.40;;;;;;6211209;23;20520;-87
2021/10/09 16:33:54;;;;;;;2.28;2.08;;;11.90;99.90;;;;;;6192214;23;20459;-87
2021/10/09 16:36:42;;;;;;;2.10;1.90;;;11.80;99.90;;;;;;6204689;22;20394;-86
2021/10/09 16:39:30;;;;;;;2.45;2.25;;;11.70;99.90;;;;;;6231780;23;20394;-89
2021/10/09 17:00:35;;;;;;;2.58;2.15;;;10.80;99.90;;;;;;6157341;22;20396;-80
2021/10/09 17:58:13;;;;;;;3.50;3.15;;;8.90;99.90;;;;;;6078101;23;20407;-81
2021/10/09 18:00:58;;;;;;;3.33;3.03;;;9.00;99.90;;;;;;6109323;23;20382;-81
2021/10/09 19:37:39;;;;;;;5.03;4.38;;;6.30;99.90;;;;;;6226050;22;20360;-79
2021/10/09 20:36:00;;;;;;;4.20;3.65;;;5.40;99.90;;;;;;6193283;23;20352;-80
2021/10/09 23:37:39;;;;;;;6.03;4.20;;;3.90;99.90;;;;;;6192234;23;20472;31
2021/10/09 23:40:24;;;;;;;5.28;4.78;;;3.80;99.90;;;;;;6195288;23;20373;-81
2021/10/09 23:43:08;;;;;;;5.30;4.20;;;3.80;99.90;;;;;;6194488;23;20434;-84
2021/10/09 23:45:53;;;;;;;5.90;4.68;;;3.60;99.90;;;;;;6183245;23;20375;-81
2021/10/09 23:48:39;;;;;;;7.17;4.87;;;3.70;99.90;;;;;;6183295;23;20371;-80
2021/10/09 23:51:23;;;;;;;5.35;4.50;;;3.70;99.90;;;;;;6177350;23;20387;-82
2021/10/09 23:54:08;;;;;;;6.32;5.43;;;3.50;99.90;;;;;;6128939;23;20369;-82
2021/10/09 23:56:52;;;;;;;7.03;5.15;;;3.60;99.90;;;;;;6172769;23;20412;-82
2021/10/09 23:59:36;;;;;;;8.65;5.57;;;3.60;99.90;;;;;;6183182;23;20406;-82
